Wetterdaten: Woche 29.10.07 - 04.11.07 (KW44)
Datum Zeit Temperatur Luftfeuchte Luftdruck Niederschlag Wind Richtung Sonnenschein Solar Taupunkt Windchill Windben
29.10.2007 00:00 2.6 C 97 % 1021.4 hPa 0.0 l/m 0.6 km/h (0 Bft) O-SO 0.00 h 0 W/m 2.1 C 2.6 C 1.0 km/h (0 Bft)
29.10.2007 01:00 3.1 C 97 % 1020.9 hPa 0.0 l/m 0.6 km/h (0 Bft) O-SO 0.00 h 0 W/m 2.7 C 3.1 C 1.6 km/h (1 Bft)
29.10.2007 02:00 3.1 C 98 % 1020.3 hPa 0.0 l/m 1.0 km/h (0 Bft) O-SO 0.00 h 0 W/m 2.8 C 3.1 C 2.1 km/h (1 Bft)
29.10.2007 03:00 3.2 C 99 % 1019.9 hPa 0.0 l/m 1.4 km/h (1 Bft) O-SO 0.00 h 0 W/m 3.0 C 3.2 C 2.8 km/h (1 Bft)
29.10.2007 04:00 3.5 C 99 % 1019.5 hPa 0.2 l/m 2.6 km/h (1 Bft) O-SO 0.00 h 0 W/m 3.3 C 3.1 C 4.5 km/h (1 Bft)
29.10.2007 05:00 3.9 C 100 % 1019.3 hPa 0.0 l/m 0.2 km/h (0 Bft) SO 0.00 h 0 W/m 3.9 C 3.9 C 0.7 km/h (0 Bft)
29.10.2007 06:00 3.9 C 100 % 1019.1 hPa 0.0 l/m 0.5 km/h (0 Bft) W 0.00 h 0 W/m 3.9 C 3.9 C 1.3 km/h (1 Bft)
29.10.2007 07:00 4.0 C 100 % 1019.2 hPa 0.0 l/m 0.1 km/h (0 Bft) W 0.00 h 13 W/m 4.0 C 4.0 C 0.5 km/h (0 Bft)
29.10.2007 08:00 4.4 C 100 % 1019.2 hPa 0.0 l/m 0.4 km/h (0 Bft) W 0.00 h 29 W/m 4.4 C 4.4 C 1.3 km/h (1 Bft)
29.10.2007 09:00 5.2 C 100 % 1019.0 hPa 0.0 l/m 0.5 km/h (0 Bft) S 0.00 h 70 W/m 5.2 C 5.2 C 1.4 km/h (1 Bft)
29.10.2007 10:00 6.0 C 99 % 1018.6 hPa 0.0 l/m 2.1 km/h (1 Bft) S-SO 0.00 h 104 W/m 5.8 C 5.8 C 4.5 km/h (1 Bft)
29.10.2007 11:00 6.7 C 93 % 1018.0 hPa 0.0 l/m 2.0 km/h (1 Bft) S-SO 0.00 h 139 W/m 5.7 C 6.6 C 4.8 km/h (1 Bft)
29.10.2007 12:00 8.9 C 84 % 1017.0 hPa 0.0 l/m 1.7 km/h (1 Bft) W-SW 0.72 h 321 W/m 6.3 C 8.8 C 4.1 km/h (1 Bft)
29.10.2007 13:00 10.3 C 77 % 1015.9 hPa 0.0 l/m 2.9 km/h (1 Bft) S-SO 1.00 h 378 W/m 6.5 C 10.3 C 5.9 km/h (2 Bft)
29.10.2007 14:00 11.6 C 72 % 1015.0 hPa 0.0 l/m 3.2 km/h (1 Bft) S-SO 0.60 h 241 W/m 6.8 C 11.6 C 6.8 km/h (2 Bft)
29.10.2007 15:00 11.3 C 72 % 1014.5 hPa 0.0 l/m 3.6 km/h (1 Bft) S-SO 0.48 h 128 W/m 6.5 C 11.3 C 7.3 km/h (2 Bft)
29.10.2007 16:00 10.4 C 75 % 1014.2 hPa 0.0 l/m 3.1 km/h (1 Bft) S-SO 0.52 h 64 W/m 6.2 C 10.4 C 5.3 km/h (1 Bft)
29.10.2007 17:00 8.9 C 81 % 1014.5 hPa 0.0 l/m 3.2 km/h (1 Bft) O-SO 0.02 h 7 W/m 5.7 C 8.8 C 5.1 km/h (1 Bft)
29.10.2007 18:00 7.0 C 87 % 1014.9 hPa 0.0 l/m 5.1 km/h (1 Bft) O-SO 0.00 h 0 W/m 4.9 C 6.4 C 6.6 km/h (2 Bft)
29.10.2007 19:00 5.9 C 91 % 1015.3 hPa 0.0 l/m 2.2 km/h (1 Bft) O-SO 0.00 h 0 W/m 4.5 C 5.7 C 3.2 km/h (1 Bft)
29.10.2007 20:00 5.2 C 93 % 1015.3 hPa 0.0 l/m 3.0 km/h (1 Bft) O-SO 0.00 h 0 W/m 4.2 C 5.0 C 4.1 km/h (1 Bft)
29.10.2007 21:00 5.3 C 94 % 1015.3 hPa 0.0 l/m 2.9 km/h (1 Bft) O-SO 0.00 h 0 W/m 4.5 C 4.9 C 4.0 km/h (1 Bft)
29.10.2007 22:00 5.6 C 95 % 1015.6 hPa 0.0 l/m 0.1 km/h (0 Bft) O 0.00 h 0 W/m 4.8 C 5.6 C 0.6 km/h (0 Bft)
29.10.2007 23:00 5.4 C 97 % 1015.2 hPa 0.0 l/m 0.4 km/h (0 Bft) O 0.00 h 0 W/m 4.9 C 5.4 C 1.1 km/h (1 Bft)
30.10.2007 00:00 5.9 C 97 % 1014.9 hPa 0.0 l/m 2.1 km/h (1 Bft) O-SO 0.00 h 0 W/m 5.5 C 5.8 C 3.7 km/h (1 Bft)
30.10.2007 01:00 6.7 C 94 % 1014.7 hPa 0.0 l/m 3.4 km/h (1 Bft) SO 0.00 h 0 W/m 5.9 C 6.5 C 5.3 km/h (1 Bft)
30.10.2007 02:00 6.9 C 93 % 1014.4 hPa 0.0 l/m 2.7 km/h (1 Bft) S-SO 0.00 h 0 W/m 5.8 C 6.8 C 4.6 km/h (1 Bft)
30.10.2007 03:00 7.0 C 92 % 1014.3 hPa 0.0 l/m 4.2 km/h (1 Bft) S-SO 0.00 h 0 W/m 5.8 C 6.6 C 7.0 km/h (2 Bft)
30.10.2007 04:00 7.1 C 92 % 1014.4 hPa 0.0 l/m 3.0 km/h (1 Bft) S-SO 0.00 h 0 W/m 5.9 C 6.9 C 5.3 km/h (1 Bft)
30.10.2007 05:00 7.0 C 92 % 1014.2 hPa 0.0 l/m 4.0 km/h (1 Bft) S-SO 0.00 h 0 W/m 5.7 C 6.6 C 6.6 km/h (2 Bft)
30.10.2007 06:00 7.0 C 92 % 1014.6 hPa 0.0 l/m 3.6 km/h (1 Bft) SO 0.00 h 0 W/m 5.8 C 6.8 C 6.2 km/h (2 Bft)
30.10.2007 07:00 7.3 C 92 % 1015.2 hPa 0.0 l/m 1.6 km/h (1 Bft) S-SO 0.00 h 6 W/m 6.2 C 7.2 C 3.7 km/h (1 Bft)
30.10.2007 08:00 7.4 C 94 % 1015.5 hPa 0.2 l/m 0.2 km/h (0 Bft) S-SO 0.00 h 17 W/m 6.5 C 7.4 C 1.5 km/h (1 Bft)
30.10.2007 09:00 7.9 C 95 % 1015.9 hPa 0.6 l/m 1.7 km/h (1 Bft) SO 0.00 h 21 W/m 7.2 C 7.9 C 3.3 km/h (1 Bft)
30.10.2007 10:00 8.4 C 96 % 1016.5 hPa 0.2 l/m 0.5 km/h (0 Bft) S-SO 0.00 h 37 W/m 7.8 C 8.4 C 1.9 km/h (1 Bft)
30.10.2007 11:00 8.9 C 97 % 1017.0 hPa 0.6 l/m 0.6 km/h (0 Bft) NO 0.00 h 74 W/m 8.4 C 8.9 C 1.8 km/h (1 Bft)
30.10.2007 12:00 8.6 C 95 % 1017.3 hPa 0.0 l/m 3.4 km/h (1 Bft) N-NW 0.00 h 63 W/m 8.0 C 8.4 C 6.0 km/h (2 Bft)
30.10.2007 13:00 8.4 C 94 % 1017.7 hPa 0.0 l/m 2.0 km/h (1 Bft) N-NW 0.00 h 53 W/m 7.4 C 8.4 C 4.4 km/h (1 Bft)
30.10.2007 14:00 8.4 C 90 % 1018.3 hPa 0.0 l/m 2.5 km/h (1 Bft) N-NW 0.00 h 46 W/m 6.9 C 8.3 C 4.7 km/h (1 Bft)
30.10.2007 15:00 8.7 C 87 % 1018.8 hPa 0.0 l/m 0.5 km/h (0 Bft) O-NO 0.00 h 50 W/m 6.6 C 8.7 C 1.2 km/h (1 Bft)
30.10.2007 16:00 8.5 C 87 % 1019.6 hPa 0.0 l/m 1.0 km/h (0 Bft) O-NO 0.00 h 21 W/m 6.5 C 8.5 C 1.9 km/h (1 Bft)
30.10.2007 17:00 8.0 C 90 % 1020.5 hPa 0.0 l/m 1.8 km/h (1 Bft) O-SO 0.00 h 6 W/m 6.4 C 8.0 C 3.1 km/h (1 Bft)
30.10.2007 18:00 7.4 C 92 % 1021.3 hPa 0.0 l/m 1.5 km/h (1 Bft) O-SO 0.00 h 0 W/m 6.2 C 7.4 C 2.6 km/h (1 Bft)
30.10.2007 19:00 6.9 C 93 % 1022.0 hPa 0.0 l/m 1.3 km/h (1 Bft) O 0.00 h 0 W/m 5.8 C 6.9 C 2.2 km/h (1 Bft)
30.10.2007 20:00 6.5 C 93 % 1022.7 hPa 0.0 l/m 0.0 km/h (0 Bft) N 0.00 h 0 W/m 5.4 C 6.5 C 0.0 km/h (0 Bft)
30.10.2007 21:00 6.1 C 93 % 1023.3 hPa 0.0 l/m 0.5 km/h (0 Bft) N-NO 0.00 h 0 W/m 5.1 C 6.1 C 1.4 km/h (1 Bft)
30.10.2007 22:00 5.8 C 94 % 1023.7 hPa 0.0 l/m 0.0 km/h (0 Bft) O 0.00 h 0 W/m 4.9 C 5.8 C 0.1 km/h (0 Bft)
30.10.2007 23:00 5.5 C 94 % 1023.7 hPa 0.0 l/m 0.2 km/h (0 Bft) O 0.00 h 0 W/m 4.6 C 5.5 C 0.7 km/h (0 Bft)
31.10.2007 00:00 5.0 C 94 % 1024.0 hPa 0.0 l/m 0.6 km/h (0 Bft) N-NO 0.00 h 0 W/m 4.1 C 5.0 C 1.7 km/h (1 Bft)
31.10.2007 01:00 4.7 C 95 % 1024.1 hPa 0.0 l/m 0.2 km/h (0 Bft) N-NO 0.00 h 0 W/m 4.0 C 4.7 C 1.4 km/h (1 Bft)
31.10.2007 02:00 5.1 C 94 % 1024.2 hPa 0.0 l/m 1.6 km/h (1 Bft) NO 0.00 h 0 W/m 4.2 C 5.0 C 4.3 km/h (1 Bft)
31.10.2007 03:00 5.9 C 88 % 1024.1 hPa 0.0 l/m 2.5 km/h (1 Bft) NO 0.00 h 0 W/m 4.0 C 5.8 C 5.6 km/h (1 Bft)
31.10.2007 04:00 6.2 C 84 % 1024.6 hPa 0.0 l/m 3.7 km/h (1 Bft) N-NO 0.00 h 0 W/m 3.7 C 5.9 C 7.2 km/h (2 Bft)
31.10.2007 05:00 6.2 C 83 % 1025.1 hPa 0.0 l/m 2.8 km/h (1 Bft) NO 0.00 h 0 W/m 3.6 C 5.9 C 5.9 km/h (2 Bft)
31.10.2007 06:00 6.4 C 81 % 1025.5 hPa 0.0 l/m 1.9 km/h (1 Bft) NO 0.00 h 0 W/m 3.3 C 6.3 C 4.8 km/h (1 Bft)
31.10.2007 07:00 6.2 C 80 % 1026.1 hPa 0.0 l/m 2.8 km/h (1 Bft) NO 0.00 h 27 W/m 3.1 C 6.0 C 6.3 km/h (2 Bft)
31.10.2007 08:00 6.5 C 79 % 1026.9 hPa 0.0 l/m 2.4 km/h (1 Bft) O-SO 0.60 h 128 W/m 3.2 C 6.3 C 4.7 km/h (1 Bft)
31.10.2007 09:00 7.8 C 75 % 1027.3 hPa 0.0 l/m 2.2 km/h (1 Bft) N 0.98 h 256 W/m 3.6 C 7.8 C 5.3 km/h (1 Bft)
31.10.2007 10:00 9.0 C 71 % 1027.1 hPa 0.0 l/m 4.2 km/h (1 Bft) O-SO 0.77 h 299 W/m 4.0 C 8.7 C 8.3 km/h (2 Bft)
31.10.2007 11:00 9.9 C 70 % 1026.9 hPa 0.0 l/m 2.1 km/h (1 Bft) O 0.10 h 176 W/m 4.7 C 9.9 C 5.0 km/h (1 Bft)
31.10.2007 12:00 11.8 C 63 % 1026.4 hPa 0.0 l/m 9.7 km/h (2 Bft) O-SO 0.87 h 429 W/m 5.0 C 11.8 C 16.2 km/h (3 Bft)
31.10.2007 13:00 11.3 C 62 % 1026.6 hPa 0.0 l/m 7.4 km/h (2 Bft) O-SO 0.45 h 235 W/m 4.3 C 11.3 C 13.0 km/h (3 Bft)
31.10.2007 14:00 11.5 C 62 % 1026.5 hPa 0.0 l/m 8.4 km/h (2 Bft) O-SO 0.38 h 192 W/m 4.6 C 11.5 C 14.7 km/h (3 Bft)
31.10.2007 15:00 11.1 C 64 % 1026.9 hPa 0.0 l/m 9.2 km/h (2 Bft) O-SO 0.67 h 151 W/m 4.5 C 11.1 C 15.7 km/h (3 Bft)
31.10.2007 16:00 10.7 C 63 % 1027.0 hPa 0.0 l/m 3.1 km/h (1 Bft) O 0.25 h 48 W/m 4.0 C 10.7 C 6.9 km/h (2 Bft)
31.10.2007 17:00 9.8 C 65 % 1027.2 hPa 0.0 l/m 2.2 km/h (1 Bft) NO 0.03 h 7 W/m 3.5 C 9.8 C 5.2 km/h (1 Bft)
31.10.2007 18:00 8.4 C 70 % 1027.8 hPa 0.0 l/m 0.9 km/h (0 Bft) N-NO 0.00 h 0 W/m 3.2 C 8.4 C 2.7 km/h (1 Bft)
31.10.2007 19:00 7.5 C 74 % 1028.4 hPa 0.0 l/m 2.3 km/h (1 Bft) N-NO 0.00 h 0 W/m 3.1 C 7.3 C 5.2 km/h (1 Bft)
31.10.2007 20:00 6.7 C 76 % 1029.1 hPa 0.0 l/m 1.1 km/h (1 Bft) NO 0.00 h 0 W/m 2.8 C 6.7 C 2.9 km/h (1 Bft)
31.10.2007 21:00 5.9 C 80 % 1029.6 hPa 0.0 l/m 2.3 km/h (1 Bft) N 0.00 h 0 W/m 2.7 C 5.8 C 4.1 km/h (1 Bft)
31.10.2007 22:00 5.0 C 83 % 1030.0 hPa 0.0 l/m 1.6 km/h (1 Bft) N 0.00 h 0 W/m 2.4 C 5.0 C 3.9 km/h (1 Bft)
31.10.2007 23:00 5.0 C 83 % 1030.1 hPa 0.0 l/m 0.6 km/h (0 Bft) O-NO 0.00 h 0 W/m 2.4 C 5.0 C 2.4 km/h (1 Bft)
01.11.2007 00:00 4.4 C 86 % 1030.3 hPa 0.0 l/m 0.8 km/h (0 Bft) O 0.00 h 0 W/m 2.2 C 4.4 C 2.6 km/h (1 Bft)
01.11.2007 01:00 4.8 C 85 % 1030.2 hPa 0.0 l/m 1.3 km/h (1 Bft) N-NO 0.00 h 0 W/m 2.4 C 4.7 C 3.1 km/h (1 Bft)
01.11.2007 02:00 4.3 C 85 % 1030.2 hPa 0.0 l/m 1.8 km/h (1 Bft) SO 0.00 h 0 W/m 2.0 C 4.3 C 4.1 km/h (1 Bft)
01.11.2007 03:00 4.0 C 86 % 1030.0 hPa 0.0 l/m 2.8 km/h (1 Bft) SO 0.00 h 0 W/m 1.9 C 3.7 C 5.0 km/h (1 Bft)
01.11.2007 04:00 2.8 C 89 % 1030.1 hPa 0.0 l/m 3.3 km/h (1 Bft) O-SO 0.00 h 0 W/m 1.2 C 2.6 C 4.8 km/h (1 Bft)
01.11.2007 05:00 1.5 C 93 % 1030.4 hPa 0.0 l/m 0.8 km/h (0 Bft) SO 0.00 h 0 W/m 0.6 C 1.5 C 1.8 km/h (1 Bft)
01.11.2007 06:00 1.1 C 96 % 1030.9 hPa 0.0 l/m 0.1 km/h (0 Bft) SO 0.00 h 0 W/m 0.5 C 1.1 C 0.3 km/h (0 Bft)
01.11.2007 07:00 1.1 C 98 % 1031.4 hPa 0.0 l/m 0.1 km/h (0 Bft) SO 0.00 h 17 W/m 0.9 C 1.1 C 0.3 km/h (0 Bft)
01.11.2007 08:00 1.8 C 99 % 1031.6 hPa 0.0 l/m 0.2 km/h (0 Bft) SO 0.00 h 72 W/m 1.7 C 1.8 C 1.3 km/h (1 Bft)
01.11.2007 09:00 3.0 C 100 % 1031.6 hPa 0.0 l/m 0.3 km/h (0 Bft) SO 0.62 h 189 W/m 3.0 C 3.0 C 1.0 km/h (0 Bft)
01.11.2007 10:00 6.4 C 89 % 1031.3 hPa 0.0 l/m 5.0 km/h (1 Bft) O-SO 0.92 h 306 W/m 4.6 C 5.6 C 8.1 km/h (2 Bft)
01.11.2007 11:00 8.6 C 76 % 1031.0 hPa 0.0 l/m 6.0 km/h (2 Bft) O-SO 1.00 h 387 W/m 4.5 C 7.8 C 8.9 km/h (2 Bft)
01.11.2007 12:00 10.2 C 70 % 1030.4 hPa 0.0 l/m 4.7 km/h (1 Bft) O-SO 1.00 h 409 W/m 4.9 C 10.0 C 7.9 km/h (2 Bft)
01.11.2007 13:00 11.7 C 63 % 1029.8 hPa 0.0 l/m 5.0 km/h (1 Bft) O-SO 1.00 h 374 W/m 4.9 C 11.7 C 7.6 km/h (2 Bft)
01.11.2007 14:00 12.3 C 59 % 1029.5 hPa 0.0 l/m 5.2 km/h (1 Bft) SO 0.73 h 244 W/m 4.6 C 12.3 C 8.4 km/h (2 Bft)
01.11.2007 15:00 12.2 C 57 % 1029.4 hPa 0.0 l/m 7.1 km/h (2 Bft) O-SO 0.95 h 165 W/m 4.0 C 12.2 C 10.6 km/h (2 Bft)
01.11.2007 16:00 11.2 C 60 % 1029.7 hPa 0.0 l/m 7.2 km/h (2 Bft) SO 0.53 h 53 W/m 3.8 C 11.2 C 10.2 km/h (2 Bft)
01.11.2007 17:00 9.4 C 68 % 1030.3 hPa 0.0 l/m 0.9 km/h (0 Bft) N-NW 0.00 h 7 W/m 3.7 C 9.4 C 2.2 km/h (1 Bft)
01.11.2007 18:00 7.5 C 82 % 1031.0 hPa 0.0 l/m 0.8 km/h (0 Bft) N-NW 0.00 h 0 W/m 4.6 C 7.5 C 2.2 km/h (1 Bft)
01.11.2007 19:00 6.1 C 87 % 1031.5 hPa 0.0 l/m 0.9 km/h (0 Bft) NW 0.00 h 0 W/m 4.1 C 6.0 C 2.4 km/h (1 Bft)
01.11.2007 20:00 4.9 C 87 % 1032.0 hPa 0.0 l/m 0.5 km/h (0 Bft) NO 0.00 h 0 W/m 2.9 C 4.9 C 1.4 km/h (1 Bft)
01.11.2007 21:00 4.2 C 88 % 1032.4 hPa 0.0 l/m 0.9 km/h (0 Bft) O-NO 0.00 h 0 W/m 2.4 C 4.2 C 2.0 km/h (1 Bft)
01.11.2007 22:00 3.1 C 91 % 1032.5 hPa 0.0 l/m 0.3 km/h (0 Bft) O-NO 0.00 h 0 W/m 1.7 C 3.1 C 0.9 km/h (0 Bft)
01.11.2007 23:00 2.6 C 93 % 1032.4 hPa 0.0 l/m 0.1 km/h (0 Bft) O-NO 0.00 h 0 W/m 1.7 C 2.6 C 0.6 km/h (0 Bft)
02.11.2007 00:00 2.1 C 93 % 1031.8 hPa 0.0 l/m 0.3 km/h (0 Bft) O-NO 0.00 h 0 W/m 1.1 C 2.1 C 0.8 km/h (0 Bft)
02.11.2007 01:00 1.4 C 94 % 1031.8 hPa 0.0 l/m 0.9 km/h (0 Bft) O-SO 0.00 h 0 W/m 0.6 C 1.3 C 1.4 km/h (1 Bft)
02.11.2007 02:00 1.2 C 96 % 1032.1 hPa 0.0 l/m 0.2 km/h (0 Bft) O-SO 0.00 h 0 W/m 0.7 C 1.2 C 0.6 km/h (0 Bft)
02.11.2007 03:00 2.0 C 98 % 1031.7 hPa 0.0 l/m 0.2 km/h (0 Bft) N-NO 0.00 h 0 W/m 1.7 C 2.0 C 1.0 km/h (0 Bft)
02.11.2007 04:00 1.5 C 99 % 1032.2 hPa 0.0 l/m 0.0 km/h (0 Bft) N-NO 0.00 h 0 W/m 1.3 C 1.5 C 0.2 km/h (0 Bft)
02.11.2007 05:00 1.1 C 100 % 1032.4 hPa 0.0 l/m 0.4 km/h (0 Bft) NO 0.00 h 0 W/m 1.1 C 1.1 C 1.1 km/h (1 Bft)
02.11.2007 06:00 0.6 C 100 % 1032.6 hPa 0.0 l/m 1.0 km/h (0 Bft) O 0.00 h 0 W/m 0.6 C 0.6 C 2.3 km/h (1 Bft)
02.11.2007 07:00 0.1 C 100 % 1032.9 hPa 0.0 l/m 0.9 km/h (0 Bft) O 0.00 h 16 W/m 0.1 C 0.1 C 2.2 km/h (1 Bft)
02.11.2007 08:00 1.2 C 100 % 1033.3 hPa 0.2 l/m 1.0 km/h (0 Bft) W-NW 0.00 h 60 W/m 1.2 C 1.2 C 2.2 km/h (1 Bft)
02.11.2007 09:00 2.1 C 100 % 1033.1 hPa 0.0 l/m 0.7 km/h (0 Bft) W-NW 0.13 h 135 W/m 2.1 C 2.1 C 1.8 km/h (1 Bft)
02.11.2007 10:00 3.8 C 100 % 1032.9 hPa 0.0 l/m 0.3 km/h (0 Bft) NW 0.63 h 272 W/m 3.8 C 3.8 C 1.5 km/h (1 Bft)
02.11.2007 11:00 8.9 C 82 % 1032.0 hPa 0.0 l/m 1.4 km/h (1 Bft) NW 1.00 h 404 W/m 5.8 C 8.9 C 3.2 km/h (1 Bft)
02.11.2007 12:00 11.7 C 60 % 1031.2 hPa 0.0 l/m 6.0 km/h (2 Bft) SO 1.00 h 418 W/m 4.2 C 11.7 C 9.6 km/h (2 Bft)
02.11.2007 13:00 12.9 C 57 % 1030.6 hPa 0.0 l/m 6.4 km/h (2 Bft) O-SO 1.00 h 375 W/m 4.5 C 12.9 C 10.3 km/h (2 Bft)
02.11.2007 14:00 13.4 C 54 % 1029.9 hPa 0.0 l/m 6.9 km/h (2 Bft) O-SO 0.70 h 230 W/m 4.3 C 13.4 C 10.3 km/h (2 Bft)
02.11.2007 15:00 13.5 C 55 % 1029.8 hPa 0.0 l/m 6.3 km/h (2 Bft) O-SO 1.00 h 168 W/m 4.7 C 13.5 C 8.7 km/h (2 Bft)
02.11.2007 16:00 12.0 C 62 % 1029.9 hPa 0.0 l/m 5.5 km/h (1 Bft) O-SO 0.50 h 48 W/m 4.9 C 12.0 C 7.2 km/h (2 Bft)
02.11.2007 17:00 9.9 C 72 % 1030.5 hPa 0.0 l/m 1.9 km/h (1 Bft) N 0.00 h 6 W/m 5.1 C 9.9 C 3.5 km/h (1 Bft)
02.11.2007 18:00 8.1 C 79 % 1031.2 hPa 0.0 l/m 0.6 km/h (0 Bft) N-NW 0.00 h 0 W/m 4.7 C 8.1 C 1.6 km/h (1 Bft)
02.11.2007 19:00 6.8 C 83 % 1031.5 hPa 0.0 l/m 0.2 km/h (0 Bft) O 0.00 h 0 W/m 4.0 C 6.8 C 1.3 km/h (1 Bft)
02.11.2007 20:00 6.0 C 86 % 1031.4 hPa 0.0 l/m 0.6 km/h (0 Bft) O-NO 0.00 h 0 W/m 3.8 C 6.0 C 1.3 km/h (1 Bft)
02.11.2007 21:00 4.8 C 90 % 1031.5 hPa 0.0 l/m 1.9 km/h (1 Bft) O 0.00 h 0 W/m 3.3 C 4.8 C 3.0 km/h (1 Bft)
02.11.2007 22:00 4.4 C 91 % 1031.4 hPa 0.0 l/m 1.0 km/h (0 Bft) O 0.00 h 0 W/m 3.1 C 4.3 C 2.0 km/h (1 Bft)
02.11.2007 23:00 4.1 C 92 % 1031.0 hPa 0.0 l/m 0.7 km/h (0 Bft) O 0.00 h 0 W/m 2.9 C 4.1 C 1.4 km/h (1 Bft)
03.11.2007 00:00 3.3 C 95 % 1030.7 hPa 0.0 l/m 0.7 km/h (0 Bft) O 0.00 h 0 W/m 2.5 C 3.3 C 1.1 km/h (1 Bft)
03.11.2007 01:00 2.9 C 97 % 1030.3 hPa 0.0 l/m 0.5 km/h (0 Bft) O 0.00 h 0 W/m 2.4 C 2.9 C 1.2 km/h (1 Bft)
03.11.2007 02:00 2.8 C 97 % 1030.0 hPa 0.0 l/m 1.4 km/h (1 Bft) O 0.00 h 0 W/m 2.4 C 2.8 C 2.6 km/h (1 Bft)
03.11.2007 03:00 2.4 C 98 % 1029.8 hPa 0.0 l/m 0.1 km/h (0 Bft) O 0.00 h 0 W/m 2.1 C 2.4 C 0.5 km/h (0 Bft)
03.11.2007 04:00 1.7 C 98 % 1029.6 hPa 0.0 l/m 0.3 km/h (0 Bft) O 0.00 h 0 W/m 1.5 C 1.7 C 0.6 km/h (0 Bft)
03.11.2007 05:00 1.6 C 99 % 1029.8 hPa 0.0 l/m 0.4 km/h (0 Bft) O 0.00 h 0 W/m 1.4 C 1.6 C 0.7 km/h (0 Bft)
03.11.2007 06:00 2.6 C 100 % 1030.1 hPa 0.0 l/m 0.0 km/h (0 Bft) N 0.00 h 0 W/m 2.6 C 2.6 C 0.3 km/h (0 Bft)
03.11.2007 07:00 2.9 C 100 % 1030.3 hPa 0.0 l/m 0.0 km/h (0 Bft) N 0.00 h 10 W/m 2.9 C 2.9 C 0.2 km/h (0 Bft)
03.11.2007 08:00 3.4 C 100 % 1030.3 hPa 0.0 l/m 0.0 km/h (0 Bft) N 0.00 h 25 W/m 3.4 C 3.4 C 0.1 km/h (0 Bft)
03.11.2007 09:00 4.6 C 100 % 1030.3 hPa 0.0 l/m 0.1 km/h (0 Bft) O 0.00 h 59 W/m 4.6 C 4.6 C 0.3 km/h (0 Bft)
03.11.2007 10:00 6.8 C 93 % 1030.0 hPa 0.0 l/m 0.4 km/h (0 Bft) N-NW 0.33 h 180 W/m 5.8 C 6.8 C 1.3 km/h (1 Bft)
03.11.2007 11:00 9.3 C 79 % 1029.2 hPa 0.0 l/m 2.5 km/h (1 Bft) SO 0.72 h 307 W/m 5.9 C 9.2 C 5.1 km/h (1 Bft)
03.11.2007 12:00 10.8 C 72 % 1028.1 hPa 0.0 l/m 2.0 km/h (1 Bft) W-SW 1.00 h 403 W/m 6.0 C 10.8 C 4.3 km/h (1 Bft)
03.11.2007 13:00 11.7 C 69 % 1027.3 hPa 0.0 l/m 1.6 km/h (1 Bft) W 1.00 h 357 W/m 6.1 C 11.7 C 3.4 km/h (1 Bft)
03.11.2007 14:00 12.5 C 66 % 1026.9 hPa 0.0 l/m 2.7 km/h (1 Bft) W 1.00 h 276 W/m 6.3 C 12.5 C 4.6 km/h (1 Bft)
03.11.2007 15:00 11.9 C 68 % 1026.6 hPa 0.0 l/m 2.6 km/h (1 Bft) S-SO 1.00 h 156 W/m 6.2 C 11.9 C 5.2 km/h (1 Bft)
03.11.2007 16:00 10.4 C 74 % 1026.5 hPa 0.0 l/m 2.6 km/h (1 Bft) S-SO 0.47 h 44 W/m 6.1 C 10.4 C 5.5 km/h (1 Bft)
03.11.2007 17:00 8.4 C 82 % 1026.6 hPa 0.0 l/m 2.1 km/h (1 Bft) S-SO 0.00 h 5 W/m 5.6 C 8.4 C 4.2 km/h (1 Bft)
03.11.2007 18:00 7.6 C 86 % 1026.9 hPa 0.0 l/m 4.1 km/h (1 Bft) O-SO 0.00 h 0 W/m 5.4 C 7.3 C 6.2 km/h (2 Bft)
03.11.2007 19:00 7.6 C 86 % 1026.9 hPa 0.0 l/m 1.7 km/h (1 Bft) S-SO 0.00 h 0 W/m 5.4 C 7.6 C 4.0 km/h (1 Bft)
03.11.2007 20:00 7.5 C 87 % 1026.8 hPa 0.0 l/m 1.5 km/h (1 Bft) S-SO 0.00 h 0 W/m 5.4 C 7.5 C 3.5 km/h (1 Bft)
03.11.2007 21:00 7.5 C 87 % 1026.3 hPa 0.0 l/m 0.3 km/h (0 Bft) SO 0.00 h 0 W/m 5.5 C 7.5 C 1.2 km/h (1 Bft)
03.11.2007 22:00 7.4 C 88 % 1025.8 hPa 0.0 l/m 0.2 km/h (0 Bft) SO 0.00 h 0 W/m 5.6 C 7.4 C 0.8 km/h (0 Bft)
03.11.2007 23:00 7.3 C 89 % 1025.4 hPa 0.0 l/m 0.8 km/h (0 Bft) S-SO 0.00 h 0 W/m 5.6 C 7.3 C 2.5 km/h (1 Bft)
04.11.2007 00:00 7.2 C 90 % 1024.9 hPa 0.0 l/m 0.7 km/h (0 Bft) S-SO 0.00 h 0 W/m 5.7 C 7.2 C 2.4 km/h (1 Bft)
04.11.2007 01:00 7.2 C 91 % 1024.7 hPa 0.0 l/m 0.6 km/h (0 Bft) S-SO 0.00 h 0 W/m 5.8 C 7.2 C 2.3 km/h (1 Bft)
04.11.2007 02:00 7.1 C 92 % 1024.9 hPa 0.0 l/m 0.4 km/h (0 Bft) S-SO 0.00 h 0 W/m 5.9 C 7.1 C 1.5 km/h (1 Bft)
04.11.2007 03:00 7.1 C 93 % 1024.8 hPa 0.0 l/m 0.7 km/h (0 Bft) S-SO 0.00 h 0 W/m 6.0 C 7.1 C 2.0 km/h (1 Bft)
04.11.2007 04:00 7.2 C 93 % 1024.4 hPa 0.0 l/m 0.1 km/h (0 Bft) S-SO 0.00 h 0 W/m 6.2 C 7.2 C 0.7 km/h (0 Bft)
04.11.2007 05:00 7.1 C 95 % 1024.5 hPa 0.0 l/m 0.0 km/h (0 Bft) S-SO 0.00 h 0 W/m 6.4 C 7.1 C 0.2 km/h (0 Bft)
04.11.2007 06:00 7.2 C 95 % 1024.5 hPa 0.0 l/m 0.0 km/h (0 Bft) N 0.00 h 0 W/m 6.4 C 7.2 C 0.1 km/h (0 Bft)
04.11.2007 07:00 7.2 C 95 % 1024.8 hPa 0.0 l/m 0.0 km/h (0 Bft) N 0.00 h 10 W/m 6.4 C 7.2 C 0.1 km/h (0 Bft)
04.11.2007 08:00 7.5 C 94 % 1024.8 hPa 0.0 l/m 0.0 km/h (0 Bft) N 0.00 h 35 W/m 6.6 C 7.5 C 0.3 km/h (0 Bft)
04.11.2007 09:00 8.1 C 92 % 1024.9 hPa 0.0 l/m 0.2 km/h (0 Bft) S 0.00 h 60 W/m 6.8 C 8.1 C 0.7 km/h (0 Bft)
04.11.2007 10:00 8.7 C 90 % 1025.1 hPa 0.0 l/m 0.0 km/h (0 Bft) S 0.00 h 92 W/m 7.2 C 8.7 C 0.6 km/h (0 Bft)
04.11.2007 11:00 9.6 C 88 % 1025.2 hPa 0.0 l/m 0.9 km/h (0 Bft) N-NW 0.00 h 93 W/m 7.6 C 9.6 C 2.2 km/h (1 Bft)
04.11.2007 12:00 11.1 C 78 % 1024.9 hPa 0.0 l/m 1.6 km/h (1 Bft) N-NW 0.45 h 209 W/m 7.5 C 11.1 C 4.2 km/h (1 Bft)
04.11.2007 13:00 11.7 C 76 % 1024.6 hPa 0.0 l/m 9.0 km/h (2 Bft) O-SO 0.57 h 219 W/m 7.5 C 11.7 C 14.0 km/h (3 Bft)
04.11.2007 14:00 11.3 C 77 % 1024.3 hPa 0.0 l/m 7.1 km/h (2 Bft) O-SO 0.08 h 117 W/m 7.5 C 11.3 C 11.5 km/h (2 Bft)
04.11.2007 15:00 10.9 C 77 % 1024.1 hPa 0.0 l/m 6.3 km/h (2 Bft) O-SO 0.00 h 71 W/m 7.0 C 10.9 C 10.1 km/h (2 Bft)
04.11.2007 16:00 9.7 C 80 % 1024.1 hPa 0.0 l/m 3.2 km/h (1 Bft) O-SO 0.00 h 18 W/m 6.5 C 9.6 C 5.6 km/h (1 Bft)
04.11.2007 17:00 9.1 C 83 % 1024.4 hPa 0.0 l/m 0.8 km/h (0 Bft) O-SO 0.00 h 0 W/m 6.4 C 9.0 C 1.7 km/h (1 Bft)
04.11.2007 18:00 9.2 C 83 % 1025.0 hPa 0.0 l/m 0.7 km/h (0 Bft) O-SO 0.00 h 0 W/m 6.4 C 9.1 C 1.7 km/h (1 Bft)
04.11.2007 19:00 9.4 C 81 % 1025.4 hPa 0.0 l/m 0.3 km/h (0 Bft) O-NO 0.00 h 0 W/m 6.4 C 9.4 C 0.8 km/h (0 Bft)
04.11.2007 20:00 9.4 C 74 % 1025.7 hPa 0.0 l/m 1.1 km/h (1 Bft) O 0.00 h 0 W/m 4.9 C 9.4 C 2.9 km/h (1 Bft)
04.11.2007 21:00 9.0 C 69 % 1026.1 hPa 0.0 l/m 1.3 km/h (1 Bft) NO 0.00 h 0 W/m 3.6 C 9.0 C 3.2 km/h (1 Bft)
04.11.2007 22:00 8.0 C 70 % 1026.4 hPa 0.0 l/m 1.7 km/h (1 Bft) N-NO 0.00 h 0 W/m 2.8 C 8.0 C 4.0 km/h (1 Bft)
04.11.2007 23:00 6.5 C 75 % 1026.5 hPa 0.0 l/m 2.3 km/h (1 Bft) N-NO 0.00 h 0 W/m 2.4 C 6.5 C 4.6 km/h (1 Bft)
Min-Datum _ 02.11.07 02.11.07 30.10.07 - 29.10.07 - - - 02.11.07 02.11.07 29.10.07
_ Min-Zeit 07:18 14:45 05:15 - 00:04 - - - 07:18 01:35 00:04
Minimum _ -0.1 C 52 % 1014.1 hPa - 0.0 km/h (0 Bft) - - - -0.1 C -0.7 C 0.0 km/h (0 Bft)
Max-Datum _ 02.11.07 29.10.07 02.11.07 30.10.07 31.10.07 - 01.11.07 31.10.07 30.10.07 02.11.07 31.10.07
_ Max-Zeit 15:02 05:08 08:00 09:31 12:20 - 13:41 12:01 11:47 15:01 12:57
Maximum _ 13.7 C 100 % 1033.3 hPa 0.6 l/m 21.4 km/h
O-SO (4 Bft)
- 0.03 h 545 W/m 8.8 C 13.7 C 31.3 km/h
O-SO (5 Bft)
Durchschnitt _ 6.8 C 86 % 1025.4 hPa #2.0 l/m 2.0 km/h (1 Bft) O-SO #27:46 h 144 W/m 4.4 C 6.7 C 3.7 km/h (1 Bft)
© Kaiko 2007